createdAt,value
2016-05-27T00:00:22.778Z,96.89
2016-05-27T00:01:22.748Z,96.42
2016-05-27T00:02:22.720Z,96.61
2016-05-27T00:03:22.864Z,96.8
2016-05-27T00:04:22.695Z,96.51
2016-05-27T00:05:22.509Z,96.99
2016-05-27T00:06:22.637Z,96.61
2016-05-27T00:07:22.609Z,96.13
2016-05-27T00:08:22.596Z,95.65
2016-05-27T00:09:22.411Z,95.75
2016-05-27T00:10:22.555Z,96.7
2016-05-27T00:11:22.541Z,96.51
2016-05-27T00:12:22.513Z,96.13
2016-05-27T00:13:22.484Z,96.03
2016-05-27T00:14:22.472Z,96.13
2016-05-27T00:15:22.443Z,96.32
2016-05-27T00:16:22.413Z,96.99
2016-05-27T00:17:22.401Z,96.7
2016-05-27T00:18:22.732Z,96.7
2016-05-27T00:19:22.360Z,97.47
2016-05-27T00:20:22.332Z,97.08
2016-05-27T00:21:22.146Z,97.61
2016-05-27T00:22:22.289Z,97.18
2016-05-27T00:23:22.104Z,96.7
2016-05-27T00:24:22.093Z,97.66
2016-05-27T00:25:22.220Z,97.42
2016-05-27T00:26:22.191Z,98.18
2016-05-27T00:27:22.178Z,97.8
2016-05-27T00:28:22.150Z,97.89
2016-05-27T00:29:22.136Z,97.89
2016-05-27T00:30:22.108Z,98.18
2016-05-27T00:31:22.095Z,98.08
2016-05-27T00:32:22.067Z,98.08
2016-05-27T00:33:22.053Z,98.57
2016-05-27T00:34:21.978Z,98.28
2016-05-27T00:35:21.996Z,98.18
2016-05-27T00:36:21.967Z,98.47
2016-05-27T00:37:21.955Z,98.08
2016-05-27T00:38:21.927Z,97.99
2016-05-27T00:39:21.913Z,98.08
2016-05-27T00:40:21.885Z,98.37
2016-05-27T00:41:21.872Z,97.99
2016-05-27T00:42:21.843Z,98.75
2016-05-27T00:43:21.815Z,98.47
2016-05-27T00:44:21.802Z,98.08
2016-05-27T00:45:21.789Z,98.75
2016-05-27T00:46:21.760Z,99.04
2016-05-27T00:47:21.732Z,98.94
2016-05-27T00:48:21.562Z,98.75
2016-05-27T00:49:21.691Z,98.94
2016-05-27T00:50:21.662Z,98.57
2016-05-27T00:51:21.649Z,99.14
2016-05-27T00:52:21.620Z,99.14
2016-05-27T00:53:21.592Z,98.66
2016-05-27T00:54:21.579Z,98.94
2016-05-27T00:55:21.550Z,98.85
2016-05-27T00:56:21.537Z,99.04
2016-05-27T00:57:21.509Z,99.14
2016-05-27T00:58:21.480Z,98.85
2016-05-27T00:59:21.484Z,99.14
2016-05-27T01:00:21.439Z,98.85
2016-05-27T01:01:21.409Z,99.08
2016-05-27T01:02:21.398Z,99.04
2016-05-27T01:03:21.384Z,99.23
2016-05-27T01:04:21.887Z,98.94
2016-05-27T01:05:21.327Z,99.04
2016-05-27T01:06:21.298Z,98.85
2016-05-27T01:07:21.130Z,99.37
2016-05-27T01:08:21.257Z,99.76
2016-05-27T01:09:21.244Z,99.57
2016-05-27T01:10:21.215Z,99.43
2016-05-27T01:11:21.186Z,99.57
2016-05-27T01:12:21.174Z,99.28
2016-05-27T01:13:21.146Z,99.62
2016-05-27T01:14:21.133Z,99.52
2016-05-27T01:15:21.119Z,99.33
2016-05-27T01:16:21.075Z,99.62
2016-05-27T01:17:21.063Z,99.62
2016-05-27T01:18:21.285Z,99.9
2016-05-27T01:19:21.021Z,99.71
2016-05-27T01:20:20.993Z,98.94
2016-05-27T01:21:20.807Z,99.23
2016-05-27T01:22:20.952Z,99.62
2016-05-27T01:23:20.922Z,99.52
2016-05-27T01:24:20.909Z,99.52
2016-05-27T01:25:20.881Z,99.99
2016-05-27T01:26:20.868Z,99.8
2016-05-27T01:27:20.840Z,99.99
2016-05-27T01:28:20.655Z,99.99
2016-05-27T01:29:20.798Z,99.99
2016-05-27T01:30:20.770Z,99.99
2016-05-27T01:31:20.740Z,99.99
2016-05-27T01:32:20.728Z,99.99
2016-05-27T01:33:20.700Z,99.99
2016-05-27T01:34:21.093Z,99.8
2016-05-27T01:35:20.658Z,99.62
2016-05-27T01:36:20.628Z,99.99
2016-05-27T01:37:20.601Z,99.99
2016-05-27T01:38:20.431Z,99.71
2016-05-27T01:39:20.559Z,99.8
2016-05-27T01:40:20.546Z,99.99
2016-05-27T01:41:20.517Z,99.52
2016-05-27T01:42:20.489Z,99.62
2016-05-27T01:43:20.477Z,99.43
2016-05-27T01:44:20.291Z,99.99
2016-05-27T01:45:20.435Z,99.99
2016-05-27T01:46:20.406Z,99.14
2016-05-27T01:47:20.377Z,99.71
2016-05-27T01:48:20.380Z,99.99
2016-05-27T01:49:20.354Z,99.99
2016-05-27T01:50:20.345Z,99.99
2016-05-27T01:51:20.335Z,99.62
2016-05-27T01:52:20.326Z,99.99
2016-05-27T01:53:20.333Z,99.99
2016-05-27T01:54:20.321Z,99.99
2016-05-27T01:55:20.316Z,99.99
2016-05-27T01:56:20.293Z,99.99
2016-05-27T01:57:20.288Z,99.99
2016-05-27T01:58:20.267Z,99.76
2016-05-27T01:59:20.243Z,99.76
2016-05-27T02:00:20.234Z,99.85
2016-05-27T02:01:20.208Z,99.28
2016-05-27T02:02:20.181Z,99.85
2016-05-27T02:03:20.172Z,99.47
2016-05-27T02:04:19.989Z,99.47
2016-05-27T02:05:20.133Z,99.66
2016-05-27T02:06:20.105Z,99.18
2016-05-27T02:07:19.922Z,99.18
2016-05-27T02:08:20.067Z,99.57
2016-05-27T02:09:20.037Z,99.66
2016-05-27T02:10:20.010Z,99.66
2016-05-27T02:11:19.996Z,99.57
2016-05-27T02:12:19.969Z,99.76
2016-05-27T02:13:19.957Z,99.76
2016-05-27T02:14:19.927Z,99.95
2016-05-27T02:15:19.915Z,99.28
2016-05-27T02:16:19.886Z,99.28
2016-05-27T02:17:19.858Z,98.99
2016-05-27T02:18:19.846Z,99.57
2016-05-27T02:19:19.817Z,99.57
2016-05-27T02:20:19.788Z,99.95
2016-05-27T02:21:19.774Z,99.99
2016-05-27T02:22:19.590Z,99.99
2016-05-27T02:23:19.734Z,99.99
2016-05-27T02:24:19.705Z,99.99
2016-05-27T02:25:19.520Z,99.99
2016-05-27T02:26:19.663Z,99.99
2016-05-27T02:27:19.634Z,99.99
2016-05-27T02:28:19.622Z,99.99
2016-05-27T02:29:19.593Z,99.99
2016-05-27T02:30:19.565Z,99.99
2016-05-27T02:31:19.551Z,99.99
2016-05-27T02:32:19.523Z,99.95
2016-05-27T02:33:19.338Z,99.99
2016-05-27T02:34:19.482Z,99.99
2016-05-27T02:35:19.297Z,99.99
2016-05-27T02:36:19.269Z,99.99
2016-05-27T02:37:19.411Z,99.99
2016-05-27T02:38:19.228Z,99.99
2016-05-27T02:39:19.355Z,99.99
2016-05-27T02:40:19.185Z,99.99
2016-05-27T02:41:19.313Z,99.99
2016-05-27T02:42:19.300Z,99.99
2016-05-27T02:43:19.272Z,99.99
2016-05-27T02:44:19.244Z,99.99
2016-05-27T02:45:19.230Z,99.99
2016-05-27T02:46:19.201Z,99.99
2016-05-27T02:47:19.188Z,99.99
2016-05-27T02:48:19.160Z,99.99
2016-05-27T02:49:19.085Z,99.99
2016-05-27T02:50:19.119Z,99.99
2016-05-27T02:51:19.090Z,99.99
2016-05-27T02:52:19.062Z,99.99
2016-05-27T02:53:19.049Z,99.99
2016-05-27T02:54:19.020Z,99.99
2016-05-27T02:55:18.991Z,99.99
2016-05-27T02:56:18.994Z,99.99
2016-05-27T02:57:18.950Z,99.99
2016-05-27T02:58:18.937Z,99.99
2016-05-27T02:59:18.768Z,99.99
2016-05-27T03:00:18.896Z,99.99
2016-05-27T03:01:18.868Z,99.99
2016-05-27T03:02:18.839Z,99.99
2016-05-27T03:03:18.826Z,99.99
2016-05-27T03:04:18.797Z,99.99
2016-05-27T03:05:18.612Z,99.99
2016-05-27T03:06:18.740Z,99.99
2016-05-27T03:07:18.728Z,99.99
2016-05-27T03:08:18.698Z,99.99
2016-05-27T03:09:18.686Z,99.99
2016-05-27T03:10:18.673Z,99.99
2016-05-27T03:11:18.628Z,99.99
2016-05-27T03:12:18.616Z,99.99
2016-05-27T03:13:18.602Z,99.99
2016-05-27T03:14:18.575Z,99.99
2016-05-27T03:15:18.545Z,99.99
2016-05-27T03:16:18.517Z,99.99
2016-05-27T03:17:18.488Z,99.99
2016-05-27T03:18:18.491Z,99.99
2016-05-27T03:19:18.447Z,99.99
2016-05-27T03:20:18.450Z,99.99
2016-05-27T03:21:18.405Z,99.99
2016-05-27T03:22:18.236Z,99.99
2016-05-27T03:23:18.224Z,99.99
2016-05-27T03:24:18.335Z,99.99
2016-05-27T03:25:18.322Z,99.99
2016-05-27T03:26:18.293Z,99.99
2016-05-27T03:27:18.281Z,99.99
2016-05-27T03:28:18.252Z,99.62
2016-05-27T03:29:18.240Z,99.99
2016-05-27T03:30:18.210Z,99.99
2016-05-27T03:31:18.182Z,99.43
2016-05-27T03:32:18.154Z,99.99
2016-05-27T03:33:18.140Z,99.99
2016-05-27T03:34:18.112Z,99.43
2016-05-27T03:35:18.099Z,99.43
2016-05-27T03:36:18.070Z,99.23
2016-05-27T03:37:18.042Z,99.43
2016-05-27T03:38:18.029Z,98.75
2016-05-27T03:39:17.859Z,98.85
2016-05-27T03:40:17.972Z,98.66
2016-05-27T03:41:17.959Z,98.66
2016-05-27T03:42:17.931Z,98.66
2016-05-27T03:43:17.761Z,98.08
2016-05-27T03:44:17.889Z,98.18
2016-05-27T03:45:17.861Z,98.37
2016-05-27T03:46:17.863Z,98.47
2016-05-27T03:47:17.819Z,97.89
2016-05-27T03:48:17.806Z,98.04
2016-05-27T03:49:17.793Z,97.99
2016-05-27T03:50:17.764Z,98.04
2016-05-27T03:51:17.736Z,97.94
2016-05-27T03:52:17.723Z,98.18
2016-05-27T03:53:17.694Z,97.52
2016-05-27T03:54:17.666Z,97.89
2016-05-27T03:55:17.652Z,97.89
2016-05-27T03:56:17.640Z,97.85
2016-05-27T03:57:17.596Z,97.23
2016-05-27T03:58:17.598Z,97.28
2016-05-27T03:59:17.570Z,97.18
2016-05-27T04:00:17.541Z,97.42
2016-05-27T04:01:17.528Z,97.23
2016-05-27T04:02:17.500Z,96.89
2016-05-27T04:03:17.471Z,97.08
2016-05-27T04:04:18.068Z,97.08
2016-05-27T04:05:17.429Z,97.23
2016-05-27T04:06:17.417Z,97.28
2016-05-27T04:07:17.389Z,97.13
2016-05-27T04:08:17.359Z,97.47
2016-05-27T04:09:17.331Z,96.89
2016-05-27T04:10:17.318Z,96.99
2016-05-27T04:11:17.290Z,97.37
2016-05-27T04:12:17.277Z,96.7
2016-05-27T04:13:17.248Z,96.51
2016-05-27T04:14:17.219Z,96.51
2016-05-27T04:15:17.206Z,96.7
2016-05-27T04:16:17.022Z,96.61
2016-05-27T04:17:17.166Z,96.32
2016-05-27T04:18:16.980Z,96.7
2016-05-27T04:19:17.546Z,97.66
2016-05-27T04:20:17.095Z,97.61
2016-05-27T04:21:17.082Z,97.37
2016-05-27T04:22:17.054Z,97.37
2016-05-27T04:23:17.025Z,97.28
2016-05-27T04:24:17.012Z,97.56
2016-05-27T04:25:16.984Z,97.47
2016-05-27T04:26:16.955Z,97.47
2016-05-27T04:27:16.942Z,96.42
2016-05-27T04:28:16.773Z,96.51
2016-05-27T04:29:16.885Z,96.89
2016-05-27T04:30:16.871Z,96.89
2016-05-27T04:31:16.843Z,96.13
2016-05-27T04:32:16.831Z,96.22
2016-05-27T04:33:16.801Z,96.22
2016-05-27T04:34:17.304Z,96.22
2016-05-27T04:35:16.760Z,96.7
2016-05-27T04:36:16.731Z,96.32
2016-05-27T04:37:16.703Z,96.61
2016-05-27T04:38:16.706Z,96.32
2016-05-27T04:39:16.678Z,96.32
2016-05-27T04:40:16.648Z,95.75
2016-05-27T04:41:16.636Z,95.94
2016-05-27T04:42:16.608Z,95.84
2016-05-27T04:43:16.423Z,96.13
2016-05-27T04:44:16.409Z,95.94
2016-05-27T04:45:16.553Z,95.75
2016-05-27T04:46:16.525Z,95.36
2016-05-27T04:47:16.496Z,95.36
2016-05-27T04:48:16.483Z,95.36
2016-05-27T04:49:16.454Z,95.46
2016-05-27T04:50:16.425Z,95.46
2016-05-27T04:51:16.413Z,95.56
2016-05-27T04:52:16.228Z,95.61
2016-05-27T04:53:16.355Z,95.79
2016-05-27T04:54:16.343Z,95.56
2016-05-27T04:55:16.314Z,95.36
2016-05-27T04:56:16.301Z,95.03
2016-05-27T04:57:16.273Z,95.22
2016-05-27T04:58:16.260Z,94.84
2016-05-27T04:59:16.247Z,94.65
2016-05-27T05:00:16.202Z,94.84
2016-05-27T05:01:16.205Z,94.74
2016-05-27T05:02:16.020Z,94.93
2016-05-27T05:03:16.148Z,94.17
2016-05-27T05:04:16.135Z,93.69
2016-05-27T05:05:16.106Z,93.6
2016-05-27T05:06:16.093Z,93.21
2016-05-27T05:07:16.065Z,93.6
2016-05-27T05:08:16.037Z,93.79
2016-05-27T05:09:16.023Z,93.12
2016-05-27T05:10:15.995Z,93.12
2016-05-27T05:11:15.811Z,93.02
2016-05-27T05:12:15.954Z,92.74
2016-05-27T05:13:15.942Z,92.45
2016-05-27T05:14:15.912Z,91.92
2016-05-27T05:15:15.743Z,92.02
2016-05-27T05:16:15.870Z,92.4
2016-05-27T05:17:15.686Z,92.11
2016-05-27T05:18:15.830Z,91.73
2016-05-27T05:19:15.800Z,91.63
2016-05-27T05:20:15.631Z,91.53
2016-05-27T05:21:15.758Z,91.63
2016-05-27T05:22:15.746Z,91.53
2016-05-27T05:23:15.718Z,91.35
2016-05-27T05:24:15.705Z,91.35
2016-05-27T05:25:15.676Z,91.73
2016-05-27T05:26:15.663Z,91.83
2016-05-27T05:27:15.650Z,91.83
2016-05-27T05:28:15.607Z,91.92
2016-05-27T05:29:15.594Z,91.73
2016-05-27T05:30:15.579Z,91.35
2016-05-27T05:31:15.552Z,91.49
2016-05-27T05:32:15.539Z,91.11
2016-05-27T05:33:15.526Z,91.3
2016-05-27T05:34:15.544Z,91.49
2016-05-27T05:35:15.469Z,91.68
2016-05-27T05:36:15.440Z,91.3
2016-05-27T05:37:15.427Z,90.53
2016-05-27T05:38:15.415Z,90.53
2016-05-27T05:39:15.386Z,90.24
2016-05-27T05:40:15.357Z,90.34
2016-05-27T05:41:15.344Z,89.86
2016-05-27T05:42:15.332Z,89.58
2016-05-27T05:43:15.303Z,88.71
2016-05-27T05:44:15.274Z,88.95
2016-05-27T05:45:15.261Z,89.62
2016-05-27T05:46:15.233Z,89.23
2016-05-27T05:47:15.219Z,88.76
2016-05-27T05:48:15.206Z,88.85
2016-05-27T05:49:15.194Z,88.85
2016-05-27T05:50:15.166Z,88.95
2016-05-27T05:51:15.152Z,88.66
2016-05-27T05:52:15.124Z,88.28
2016-05-27T05:53:15.094Z,88.28
2016-05-27T05:54:14.927Z,88.56
2016-05-27T05:55:14.897Z,88.56
2016-05-27T05:56:15.041Z,88.66
2016-05-27T05:57:15.012Z,88.56
2016-05-27T05:58:14.999Z,89.04
2016-05-27T05:59:14.971Z,89.14
2016-05-27T06:00:14.958Z,88.85
2016-05-27T06:01:14.930Z,88.66
2016-05-27T06:02:14.916Z,87.99
2016-05-27T06:03:14.888Z,88.37
2016-05-27T06:04:14.874Z,88.09
2016-05-27T06:05:17.096Z,88.28
2016-05-27T06:06:14.834Z,87.9
2016-05-27T06:07:14.805Z,87.94
2016-05-27T06:08:14.792Z,87.17
2016-05-27T06:09:14.763Z,87.94
2016-05-27T06:10:14.751Z,87.74
2016-05-27T06:11:14.737Z,87.99
2016-05-27T06:12:14.708Z,87.84
2016-05-27T06:13:14.681Z,88.03
2016-05-27T06:14:14.667Z,87.37
2016-05-27T06:15:14.654Z,87.55
2016-05-27T06:16:14.625Z,87.27
2016-05-27T06:17:14.614Z,86.94
2016-05-27T06:18:14.584Z,87.74
2016-05-27T06:19:14.805Z,88.32
2016-05-27T06:20:14.543Z,87.46
2016-05-27T06:21:14.530Z,87.46
2016-05-27T06:22:14.517Z,87.99
2016-05-27T06:23:14.488Z,89.04
2016-05-27T06:24:14.460Z,89.23
2016-05-27T06:25:14.447Z,88.95
2016-05-27T06:26:14.433Z,89.09
2016-05-27T06:27:14.405Z,88.32
2016-05-27T06:28:14.393Z,88.42
2016-05-27T06:29:14.364Z,88.03
2016-05-27T06:30:14.335Z,88.32
2016-05-27T06:31:14.322Z,88.61
2016-05-27T06:32:14.310Z,88.42
2016-05-27T06:33:14.296Z,88.23
2016-05-27T06:34:14.580Z,87.84
2016-05-27T06:35:14.099Z,87.46
2016-05-27T06:36:14.226Z,87.65
2016-05-27T06:37:14.198Z,87.74
2016-05-27T06:38:14.185Z,87.08
2016-05-27T06:39:14.172Z,87.65
2016-05-27T06:40:14.144Z,87.46
2016-05-27T06:41:14.131Z,87.65
2016-05-27T06:42:14.101Z,87.84
2016-05-27T06:43:14.105Z,87.37
2016-05-27T06:44:14.061Z,88.32
2016-05-27T06:45:14.047Z,88.32
2016-05-27T06:46:14.019Z,88.23
2016-05-27T06:47:14.006Z,88.13
2016-05-27T06:48:13.993Z,87.65
2016-05-27T06:49:13.980Z,88.32
2016-05-27T06:50:13.936Z,87.55
2016-05-27T06:51:13.955Z,87.46
2016-05-27T06:52:13.894Z,87.6
2016-05-27T06:53:13.881Z,87.79
2016-05-27T06:54:17.088Z,87.12
2016-05-27T06:55:13.840Z,86.83
2016-05-27T06:56:13.828Z,87.12
2016-05-27T06:57:13.814Z,85.97
2016-05-27T06:58:13.786Z,85.3
2016-05-27T06:59:13.757Z,85.63
2016-05-27T07:00:13.743Z,85.25
2016-05-27T07:01:13.732Z,84.86
2016-05-27T07:02:13.703Z,84.86
2016-05-27T07:03:13.690Z,83.91
2016-05-27T07:04:13.676Z,83.61
2016-05-27T07:05:13.649Z,83.33
2016-05-27T07:06:13.635Z,84.14
2016-05-27T07:07:13.622Z,83.56
2016-05-27T07:08:13.594Z,83.47
2016-05-27T07:09:13.581Z,83.85
2016-05-27T07:10:13.552Z,83.75
2016-05-27T07:11:13.539Z,82.7
2016-05-27T07:12:13.511Z,81.97
2016-05-27T07:13:13.498Z,81.3
2016-05-27T07:14:13.469Z,81.1
2016-05-27T07:15:13.472Z,80.05
2016-05-27T07:16:13.443Z,80.66
2016-05-27T07:17:13.258Z,81.05
2016-05-27T07:18:13.418Z,80.38
2016-05-27T07:19:13.405Z,80.19
2016-05-27T07:20:13.361Z,78.84
2016-05-27T07:21:13.191Z,78.3
2016-05-27T07:22:13.179Z,77.73
2016-05-27T07:23:13.322Z,77.19
2016-05-27T07:24:13.293Z,76.52
2016-05-27T07:25:13.280Z,76.14
2016-05-27T07:26:13.252Z,75.46
2016-05-27T07:27:13.239Z,74.88
2016-05-27T07:28:13.225Z,73.28
2016-05-27T07:29:13.213Z,73.57
2016-05-27T07:30:13.200Z,73.77
2016-05-27T07:31:13.172Z,73.28
2016-05-27T07:32:13.158Z,74.48
2016-05-27T07:33:13.145Z,73.61
2016-05-27T07:34:14.555Z,73.13
2016-05-27T07:35:13.104Z,72.39
2016-05-27T07:36:12.935Z,71.04
2016-05-27T07:37:13.079Z,70.02
2016-05-27T07:38:13.065Z,69.35
2016-05-27T07:39:13.051Z,67.94
2016-05-27T07:40:13.024Z,67.74
2016-05-27T07:41:13.010Z,68.04
2016-05-27T07:42:12.998Z,67.58
2016-05-27T07:43:12.969Z,67.68
2016-05-27T07:44:12.973Z,67.1
2016-05-27T07:45:12.942Z,67.4
2016-05-27T07:46:12.774Z,67.78
2016-05-27T07:47:12.918Z,67.55
2016-05-27T07:48:12.904Z,66.04
2016-05-27T07:49:16.422Z,66.82
2016-05-27T07:50:12.926Z,64.72
2016-05-27T07:51:12.850Z,64.63
2016-05-27T07:52:12.836Z,63.28
2016-05-27T07:53:12.824Z,63.76
2016-05-27T07:54:12.811Z,66.08
2016-05-27T07:55:12.782Z,64.82
2016-05-27T07:56:12.769Z,64.72
2016-05-27T07:57:12.772Z,64.63
2016-05-27T07:58:12.744Z,64.63
2016-05-27T07:59:12.762Z,65.11
2016-05-27T08:00:12.719Z,64.18
2016-05-27T08:01:12.549Z,63.89
2016-05-27T08:02:12.691Z,63.21
2016-05-27T08:03:12.679Z,63.21
2016-05-27T08:04:13.182Z,63.5
2016-05-27T08:05:12.638Z,62.92
2016-05-27T08:06:12.624Z,62.44
2016-05-27T08:07:12.612Z,63.02
2016-05-27T08:08:12.598Z,63.5
2016-05-27T08:09:12.586Z,63.4
2016-05-27T08:10:12.417Z,63.21
2016-05-27T08:11:12.576Z,63.21
2016-05-27T08:12:12.531Z,62.44
2016-05-27T08:13:12.535Z,62.92
2016-05-27T08:14:12.506Z,61.7
2016-05-27T08:15:12.493Z,61.51
2016-05-27T08:16:12.479Z,61.8
2016-05-27T08:17:12.467Z,61.89
2016-05-27T08:18:12.454Z,61.99
2016-05-27T08:19:12.566Z,61.6
2016-05-27T08:20:12.428Z,61.51
2016-05-27T08:21:12.415Z,61.31
2016-05-27T08:22:12.261Z,61.38
2016-05-27T08:23:12.390Z,61.47
2016-05-27T08:24:12.376Z,62.05
2016-05-27T08:25:12.347Z,61.86
2016-05-27T08:26:12.335Z,62.25
2016-05-27T08:27:12.322Z,62.25
2016-05-27T08:28:12.306Z,62.25
2016-05-27T08:29:12.137Z,62.34
2016-05-27T08:30:12.280Z,61.96
2016-05-27T08:31:12.267Z,63.02
2016-05-27T08:32:12.255Z,63.6
2016-05-27T08:33:12.226Z,63.12
2016-05-27T08:34:12.229Z,63.31
2016-05-27T08:35:13.000Z,62.92
2016-05-27T08:36:12.188Z,62.82
2016-05-27T08:37:12.174Z,62.15
2016-05-27T08:38:12.161Z,63.5
2016-05-27T08:39:12.132Z,63.5
2016-05-27T08:40:12.120Z,63.95
2016-05-27T08:41:12.123Z,63.57
2016-05-27T08:42:12.094Z,63.98
2016-05-27T08:43:12.081Z,64.15
2016-05-27T08:44:12.068Z,64.63
2016-05-27T08:45:12.055Z,65.78
2016-05-27T08:46:11.886Z,65.88
2016-05-27T08:47:12.029Z,66.14
2016-05-27T08:48:12.001Z,67.14
2016-05-27T08:49:11.956Z,65.95
2016-05-27T08:50:11.975Z,66.33
2016-05-27T08:51:11.962Z,67.1
2016-05-27T08:52:11.949Z,65.95
2016-05-27T08:53:11.937Z,66.14
2016-05-27T08:54:11.908Z,66.39
2016-05-27T08:55:11.895Z,67.16
2016-05-27T08:56:11.881Z,67.61
2016-05-27T08:57:11.884Z,67.52
2016-05-27T08:58:11.856Z,68.35
2016-05-27T08:59:11.827Z,68.68
2016-05-27T09:00:11.814Z,67.61
2016-05-27T09:01:11.801Z,68.48
2016-05-27T09:02:11.789Z,68.68
2016-05-27T09:03:11.775Z,68.19
2016-05-27T09:04:11.778Z,68.58
2016-05-27T09:05:11.750Z,68.87
2016-05-27T09:06:11.721Z,70.41
2016-05-27T09:07:11.708Z,70.41
2016-05-27T09:08:11.680Z,70.98
2016-05-27T09:09:11.666Z,69.45
2016-05-27T09:10:11.654Z,70.12
2016-05-27T09:11:11.641Z,69.83
2016-05-27T09:12:11.627Z,69.83
2016-05-27T09:13:11.615Z,69.83
2016-05-27T09:14:14.965Z,69.15
2016-05-27T09:15:11.574Z,68.68
2016-05-27T09:16:11.560Z,68.77
2016-05-27T09:17:11.547Z,68.87
2016-05-27T09:18:11.518Z,69.02
2016-05-27T09:19:11.538Z,69.7
2016-05-27T09:20:11.462Z,70.28
2016-05-27T09:21:11.495Z,68.84
2016-05-27T09:22:11.467Z,69.45
2016-05-27T09:23:11.438Z,69.45
2016-05-27T09:24:11.442Z,69.25
2016-05-27T09:25:11.413Z,69.89
2016-05-27T09:26:11.384Z,69.06
2016-05-27T09:27:11.450Z,68.84
2016-05-27T09:28:11.358Z,69.99
2016-05-27T09:29:11.345Z,69.7
2016-05-27T09:30:11.333Z,69.41
2016-05-27T09:31:11.319Z,70.18
2016-05-27T09:32:11.291Z,70.66
2016-05-27T09:33:11.278Z,70.18
2016-05-27T09:34:12.436Z,69.22
2016-05-27T09:35:11.658Z,69.51
2016-05-27T09:36:11.224Z,68.68
2016-05-27T09:37:11.211Z,68.19
2016-05-27T09:38:11.197Z,68.68
2016-05-27T09:39:11.200Z,68
2016-05-27T09:40:11.157Z,67.71
2016-05-27T09:41:11.471Z,67.84
2016-05-27T09:42:11.130Z,67.55
2016-05-27T09:43:11.118Z,67.61
2016-05-27T09:44:11.088Z,67.16
2016-05-27T09:45:11.076Z,67.94
2016-05-27T09:46:11.079Z,68.32
2016-05-27T09:47:10.893Z,66.39
2016-05-27T09:48:10.881Z,66.39
2016-05-27T09:49:11.024Z,66.3
2016-05-27T09:50:11.026Z,66.49
2016-05-27T09:51:10.982Z,66.01
2016-05-27T09:52:10.970Z,66.3
2016-05-27T09:53:10.956Z,66.3
2016-05-27T09:54:10.928Z,66.33
2016-05-27T09:55:10.931Z,66.24
2016-05-27T09:56:10.903Z,65.75
2016-05-27T09:57:10.889Z,65.27
2016-05-27T09:58:10.876Z,65.47
2016-05-27T09:59:10.847Z,65.17
2016-05-27T10:00:10.851Z,65.08
2016-05-27T10:01:10.822Z,64.98
2016-05-27T10:02:10.809Z,64.4
2016-05-27T10:03:10.796Z,65.95
2016-05-27T10:04:10.783Z,65.47
2016-05-27T10:05:10.988Z,64.69
2016-05-27T10:06:10.758Z,64.69
2016-05-27T10:07:10.730Z,64.98
2016-05-27T10:08:10.732Z,64.4
2016-05-27T10:09:10.702Z,64.98
2016-05-27T10:10:10.690Z,66.33
2016-05-27T10:11:10.676Z,65.66
2016-05-27T10:12:10.663Z,66.24
2016-05-27T10:13:10.636Z,64.43
2016-05-27T10:14:10.623Z,65.2
2016-05-27T10:15:10.610Z,64.63
2016-05-27T10:16:10.596Z,64.59
2016-05-27T10:17:10.584Z,64.82
2016-05-27T10:18:10.555Z,63.24
2016-05-27T10:19:11.121Z,64.69
2016-05-27T10:20:10.529Z,64.02
2016-05-27T10:21:10.517Z,63.82
2016-05-27T10:22:10.487Z,63.92
2016-05-27T10:23:10.490Z,64.43
2016-05-27T10:24:10.478Z,63.37
2016-05-27T10:25:10.449Z,64.4
2016-05-27T10:26:10.545Z,63.67
2016-05-27T10:27:10.423Z,63.18
2016-05-27T10:28:12.254Z,63.73
2016-05-27T10:29:10.381Z,63.47
2016-05-27T10:30:10.384Z,63.67
2016-05-27T10:31:10.356Z,63.37
2016-05-27T10:32:10.358Z,63.95
2016-05-27T10:33:10.330Z,63.6
2016-05-27T10:34:11.348Z,64.05
2016-05-27T10:35:10.663Z,63.4
2016-05-27T10:36:10.275Z,63.79
2016-05-27T10:37:10.263Z,63.02
2016-05-27T10:38:10.265Z,61.8
2016-05-27T10:39:10.237Z,61.7
2016-05-27T10:40:10.239Z,61.89
2016-05-27T10:41:10.210Z,61.22
2016-05-27T10:42:10.199Z,60.35
2016-05-27T10:43:10.185Z,60.44
2016-05-27T10:44:10.188Z,60.06
2016-05-27T10:45:10.332Z,60.73
2016-05-27T10:46:10.130Z,61.57
2016-05-27T10:47:10.118Z,61.57
2016-05-27T10:48:10.120Z,62.63
2016-05-27T10:49:10.092Z,61.67
2016-05-27T10:50:09.937Z,61.86
2016-05-27T10:51:09.909Z,62.54
2016-05-27T10:52:10.054Z,62.54
2016-05-27T10:53:10.040Z,63.02
2016-05-27T10:54:10.011Z,62.25
2016-05-27T10:55:10.014Z,62.63
2016-05-27T10:56:09.986Z,63.4
2016-05-27T10:57:10.014Z,62.44
2016-05-27T10:58:10.011Z,62.05
2016-05-27T10:59:10.024Z,61.8
2016-05-27T11:00:10.036Z,62.25
2016-05-27T11:01:10.034Z,61.6
2016-05-27T11:02:10.030Z,61.02
2016-05-27T11:03:10.027Z,61.8
2016-05-27T11:04:10.039Z,61.7
2016-05-27T11:05:10.175Z,61.41
2016-05-27T11:06:10.750Z,59.96
2016-05-27T11:07:10.006Z,60.35
2016-05-27T11:08:09.996Z,61.09
2016-05-27T11:09:09.971Z,61.28
2016-05-27T11:10:09.962Z,61.28
2016-05-27T11:11:10.484Z,61.67
2016-05-27T11:12:09.940Z,61.77
2016-05-27T11:13:09.772Z,61.7
2016-05-27T11:14:09.916Z,61.41
2016-05-27T11:15:09.905Z,61.8
2016-05-27T11:16:09.878Z,59.77
2016-05-27T11:17:09.866Z,61.02
2016-05-27T11:18:09.853Z,61.41
2016-05-27T11:19:10.402Z,60.54
2016-05-27T11:20:09.671Z,61.22
2016-05-27T11:21:09.815Z,60.83
2016-05-27T11:22:09.646Z,61.22
2016-05-27T11:23:09.790Z,61.99
2016-05-27T11:24:09.777Z,61.92
2016-05-27T11:25:09.749Z,61.25
2016-05-27T11:26:09.753Z,61.51
2016-05-27T11:27:09.724Z,61.31
2016-05-27T11:28:09.727Z,61.51
2016-05-27T11:29:09.697Z,61.63
2016-05-27T11:30:09.685Z,61.6
2016-05-27T11:31:09.515Z,61.54
2016-05-27T11:32:09.659Z,61.7
2016-05-27T11:33:09.646Z,61.8
2016-05-27T11:34:09.992Z,62.57
2016-05-27T11:35:09.621Z,63.43
2016-05-27T11:36:09.607Z,62.37
2016-05-27T11:37:09.578Z,63.05
2016-05-27T11:38:09.582Z,63.24
2016-05-27T11:39:09.568Z,62.28
2016-05-27T11:40:09.540Z,62.57
2016-05-27T11:41:09.527Z,63.34
2016-05-27T11:42:09.514Z,62.08
2016-05-27T11:43:09.517Z,61.89
2016-05-27T11:44:09.488Z,61.6
2016-05-27T11:45:09.475Z,61.41
2016-05-27T11:46:09.447Z,62.63
2016-05-27T11:47:09.434Z,63.31
2016-05-27T11:48:09.420Z,62.76
2016-05-27T11:49:09.923Z,62.15
2016-05-27T11:50:09.395Z,61.96
2016-05-27T11:51:13.694Z,62.25
2016-05-27T11:52:09.370Z,62.63
2016-05-27T11:53:09.341Z,62.73
2016-05-27T11:54:09.343Z,62.05
2016-05-27T11:55:09.314Z,63.12
2016-05-27T11:56:09.302Z,62.73
2016-05-27T11:57:09.304Z,63.67
2016-05-27T11:58:09.275Z,64.15
2016-05-27T11:59:09.263Z,63.47
2016-05-27T12:00:09.249Z,64.15
2016-05-27T12:01:09.238Z,64.34
2016-05-27T12:02:09.208Z,63.95
2016-05-27T12:03:09.196Z,64.5
2016-05-27T12:04:09.182Z,64.92
2016-05-27T12:05:09.169Z,65.37
2016-05-27T12:06:09.001Z,64.89
2016-05-27T12:07:09.129Z,65.17
2016-05-27T12:08:09.131Z,66.14
2016-05-27T12:09:09.102Z,66.33
2016-05-27T12:10:09.089Z,66.24
2016-05-27T12:11:08.921Z,66.14
2016-05-27T12:12:09.048Z,66.43
2016-05-27T12:13:09.035Z,65.75
2016-05-27T12:14:09.022Z,66.3
2016-05-27T12:15:09.025Z,66.69
2016-05-27T12:16:12.887Z,67.16
2016-05-27T12:17:08.967Z,66.97
2016-05-27T12:18:08.986Z,67.36
2016-05-27T12:19:08.956Z,67.36
2016-05-27T12:20:08.929Z,66.97
2016-05-27T12:21:08.916Z,67.74
2016-05-27T12:22:08.902Z,68.23
2016-05-27T12:23:08.875Z,68.13
2016-05-27T12:24:08.861Z,67.84
2016-05-27T12:25:08.864Z,67.52
2016-05-27T12:26:08.836Z,67.55
2016-05-27T12:27:08.666Z,67.16
2016-05-27T12:28:08.794Z,67.84
2016-05-27T12:29:08.780Z,67.74
2016-05-27T12:30:08.768Z,67.74
2016-05-27T12:31:08.599Z,68.04
2016-05-27T12:32:08.741Z,67.84
2016-05-27T12:33:08.713Z,68.38
2016-05-27T12:34:08.810Z,69.15
2016-05-27T12:35:08.813Z,68.23
2016-05-27T12:36:08.660Z,68.29
2016-05-27T12:37:08.662Z,68.32
2016-05-27T12:38:08.649Z,68.1
2016-05-27T12:39:08.621Z,68.19
2016-05-27T12:40:08.607Z,68.8
2016-05-27T12:41:08.595Z,68.19
2016-05-27T12:42:08.566Z,69.19
2016-05-27T12:43:08.412Z,69.06
2016-05-27T12:44:08.540Z,68.9
2016-05-27T12:45:08.526Z,69.06
2016-05-27T12:46:08.342Z,68.96
2016-05-27T12:47:08.501Z,69.45
2016-05-27T12:48:08.473Z,68.87
2016-05-27T12:49:08.460Z,69.06
2016-05-27T12:50:08.572Z,68.87
2016-05-27T12:51:08.450Z,69.06
2016-05-27T12:52:08.421Z,69.83
2016-05-27T12:53:08.392Z,69.83
2016-05-27T12:54:08.380Z,69.93